METAR history Hostomel Airport (UKKM)

1 July 9:00 pm LT
1h

July 1, 2022

Time Code Weather Temp. Visibility Ceiling Wind METAR/SPECI
9:00 pm
V
77 °F 6¼ mi+ - 040° 040° 3 kt METAR UMGG 011800Z 04002MPS CAVOK 25/13 Q1019 NOSIG
8:00 pm
V
79 °F 6¼ mi+ - 050° 050° 7 kt METAR UMGG 011700Z 05004MPS CAVOK 26/12 Q1018 NOSIG
7:30 pm
V
82 °F 6¼ mi+ - 050° 050° 9 kt METAR UMGG 011630Z 05005MPS CAVOK 28/11 Q1018 NOSIG
7:00 pm
V
82 °F 6¼ mi+ - 040° 040° 9 kt METAR UMGG 011600Z 04005MPS CAVOK 28/11 Q1018 NOSIG
6:30 pm
V
82 °F 6¼ mi+ - 040° 040° 11 kt METAR UMGG 011530Z 04006MPS CAVOK 28/10 Q1018 NOSIG
6:00 pm
V
82 °F 6¼ mi+ - 040° 040° 11 kt METAR UMGG 011500Z 04006MPS CAVOK 28/10 Q1018 NOSIG
5:30 pm
V
84 °F 6¼ mi+ - 060° 060° 11 kt METAR UMGG 011430Z 06006MPS CAVOK 29/11 Q1018 NOSIG
5:00 pm
V
84 °F 6¼ mi+ - 050° 050° 9 kt METAR UMGG 011400Z 05005MPS CAVOK 29/11 Q1018 NOSIG
4:30 pm
V
84 °F 6¼ mi+ - 030° 030° 9 kt METAR UMGG 011330Z 03005MPS CAVOK 29/11 Q1018 NOSIG
4:00 pm
V
84 °F 6¼ mi+ - 030° 030° 9 kt METAR UMGG 011300Z 03005MPS CAVOK 29/11 Q1018 NOSIG
3:30 pm
V
82 °F 6¼ mi+ - 020° 020° 9 kt METAR UMGG 011230Z 02005MPS CAVOK 28/12 Q1018 NOSIG
3:00 pm
V
82 °F 6¼ mi+ - 010° 010° 9 kt METAR UMGG 011200Z 01005MPS CAVOK 28/12 Q1018 NOSIG
2:30 pm
V
82 °F 6¼ mi+ - 020° 020° 9 kt METAR UMGG 011130Z 02005MPS CAVOK 28/10 Q1019 NOSIG
2:00 pm
V
82 °F 6¼ mi+ - 030° 030° 9 kt METAR UMGG 011100Z 03005MPS CAVOK 28/10 Q1019 NOSIG
1:30 pm
V
81 °F 6¼ mi+ - 010° 010° 9 kt METAR UMGG 011030Z 01005MPS CAVOK 27/10 Q1020 NOSIG
1:00 pm
V
81 °F 6¼ mi+ - 020° 020° 9 kt METAR UMGG 011000Z 02005MPS CAVOK 27/10 Q1020 NOSIG
12:30 pm
V
79 °F 6¼ mi+ - 010° 010° 9 kt METAR UMGG 010930Z 01005MPS CAVOK 26/11 Q1020 NOSIG
12:00 pm
V
79 °F 6¼ mi+ - 020° 020° 9 kt METAR UMGG 010900Z 02005MPS CAVOK 26/11 Q1020 NOSIG
11:30 am
V
79 °F 6¼ mi+ - 360° 360° 9 kt METAR UMGG 010830Z 36005MPS CAVOK 26/12 Q1020 NOSIG
11:00 am
V
79 °F 6¼ mi+ - 010° 010° 9 kt METAR UMGG 010800Z 01005MPS CAVOK 26/12 Q1020 NOSIG
10:30 am
V
75 °F 6¼ mi+ - 010° 010° 9 kt METAR UMGG 010730Z 01005MPS CAVOK 24/12 Q1020 NOSIG
10:00 am
V
75 °F 6¼ mi+ - 010° 010° 5 kt METAR UMGG 010700Z 01003MPS CAVOK 24/12 Q1020 NOSIG
9:30 am
V
73 °F 6¼ mi+ - 030° 030° 3 kt METAR UMGG 010630Z 03002MPS CAVOK 23/13 Q1020 NOSIG
9:00 am
V
73 °F 6¼ mi+ - 020° 020° 3 kt METAR UMGG 010600Z 02002MPS CAVOK 23/13 Q1020 NOSIG
8:30 am
V
70 °F 6¼ mi+ - 040° 040° 3 kt METAR UMGG 010530Z 04002MPS CAVOK 21/13 Q1020 NOSIG
8:00 am
V
70 °F 6¼ mi+ - 020° 020° 3 kt METAR UMGG 010500Z 02002MPS CAVOK 21/13 Q1020 NOSIG
7:30 am
V
64 °F 6¼ mi+ - 020° 020° 3 kt METAR UMGG 010430Z 02002MPS CAVOK 18/13 Q1019 NOSIG
7:00 am
V
64 °F 6¼ mi+ - 010° 010° 3 kt METAR UMGG 010400Z 01002MPS CAVOK 18/13 Q1019 NOSIG
6:30 am
V
59 °F 6¼ mi+ - 100° 100° 3 kt METAR UMGG 010330Z 10002MPS CAVOK 15/13 Q1019 NOSIG
5:00 am
V
59 °F 5 mi - 350° 350° 3 kt METAR UMGG 010200Z 35002MPS 8000 NSC 15/13 Q1019 NOSIG
4:00 am
V
57 °F 6¼ mi+ - 350° 350° 3 kt METAR UMGG 010100Z 35002MPS CAVOK 14/13 Q1019 NOSIG
3:00 am
V
59 °F 6¼ mi+ - 010° 010° 3 kt METAR UMGG 010000Z 01002MPS CAVOK 15/13 Q1019 NOSIG
2:00 am
V
61 °F 6¼ mi+ - 350° 350° 3 kt METAR UMGG 302300Z 35002MPS CAVOK 16/14 Q1019 NOSIG
1:00 am
V
63 °F 6¼ mi+ - 010° 010° 3 kt METAR UMGG 302200Z 01002MPS CAVOK 17/14 Q1019 NOSIG
12:00 am
V
64 °F 6¼ mi+ - 020° 020° 3 kt METAR UMGG 302100Z 02002MPS CAVOK 18/14 Q1019 NOSIG

June 30, 2022

Time Code Weather Temp. Visibility Ceiling Wind METAR/SPECI
11:00 pm
V
66 °F 6¼ mi+ - 020° 020° 5 kt METAR UMGG 302000Z 02003MPS CAVOK 19/14 Q1019 NOSIG
10:00 pm
V
70 °F 6¼ mi+ - 020° 020° 5 kt METAR UMGG 301900Z 02003MPS CAVOK 21/15 Q1018 NOSIG
9:00 pm
V
75 °F 6¼ mi+ - 030° 030° 5 kt METAR UMGG 301800Z 03003MPS CAVOK 24/15 Q1018 NOSIG
8:00 pm
V
79 °F 6¼ mi+ - 020° 020° 9 kt METAR UMGG 301700Z 02005MPS CAVOK 26/16 Q1018 NOSIG
7:30 pm
V
81 °F 6¼ mi+ - 040° 040° 9 kt METAR UMGG 301630Z 04005MPS CAVOK 27/14 Q1018 NOSIG
7:00 pm
V
81 °F 6¼ mi+ - 040° 040° 9 kt METAR UMGG 301600Z 04005MPS CAVOK 27/14 Q1017 NOSIG
6:30 pm
V
82 °F 6¼ mi+ - 020° 020° 7 kt METAR UMGG 301530Z 02004MPS CAVOK 28/14 Q1017 NOSIG
6:00 pm
V
82 °F 6¼ mi+ - 010° 010° 7 kt METAR UMGG 301500Z 01004MPS CAVOK 28/14 Q1017 NOSIG
5:30 pm
V
82 °F 6¼ mi+ - 030° 030° 9 kt METAR UMGG 301430Z 03005MPS CAVOK 28/13 Q1017 NOSIG
5:00 pm
V
82 °F 6¼ mi+ - Var Var 1 kt METAR UMGG 301400Z VRB01MPS CAVOK 28/13 Q1018 NOSIG
4:30 pm
V
82 °F 6¼ mi+ - Var Var 1 kt METAR UMGG 301330Z VRB01MPS CAVOK 28/14 Q1018 NOSIG
4:00 pm
V
82 °F 6¼ mi+ - Var Var 1 kt METAR UMGG 301300Z VRB01MPS CAVOK 28/14 Q1018 NOSIG
3:30 pm
V
82 °F 6¼ mi+ 4,900 ft Var Var 1 kt METAR UMGG 301230Z VRB01MPS 9999 BKN049 28/15 Q1018 NOSIG
3:00 pm
V
82 °F 6¼ mi+ 4,900 ft Var Var 1 kt METAR UMGG 301200Z VRB01MPS 9999 BKN049 28/15 Q1018 NOSIG
2:30 pm
V
82 °F 6¼ mi+ 4,700 ft Var Var 1 kt METAR UMGG 301130Z VRB01MPS 9999 BKN047 28/16 Q1018 NOSIG
2:00 pm
V
82 °F 6¼ mi+ 4,400 ft Var Var 1 kt METAR UMGG 301100Z VRB01MPS 9999 BKN044 28/16 Q1018 NOSIG
1:30 pm
V
81 °F 6¼ mi+ 4,300 ft Var Var 1 kt METAR UMGG 301030Z VRB01MPS 9999 BKN043 27/16 Q1018 NOSIG
1:00 pm
V
81 °F 6¼ mi+ 4,100 ft Var Var 1 kt METAR UMGG 301000Z VRB01MPS 9999 BKN041 27/16 Q1018 NOSIG
12:30 pm
V
77 °F 6¼ mi+ 3,700 ft Var Var 1 kt METAR UMGG 300930Z VRB01MPS 9999 BKN037 25/15 Q1018 NOSIG
12:00 pm
V
77 °F 6¼ mi+ 3,700 ft Var Var 1 kt METAR UMGG 300900Z VRB01MPS 9999 BKN037 25/15 Q1019 NOSIG
11:30 am
V
75 °F 6¼ mi+ 3,400 ft Var Var 1 kt METAR UMGG 300830Z VRB01MPS 9999 BKN034 24/14 Q1019 NOSIG
11:00 am
V
75 °F 6¼ mi+ - Var Var 1 kt METAR UMGG 300800Z VRB01MPS 9999 SCT032 24/14 Q1018 NOSIG
10:30 am
V
73 °F 6¼ mi+ - Var Var 1 kt METAR UMGG 300730Z VRB01MPS 9999 FEW014 23/17 Q1018 NOSIG
10:00 am
V
73 °F 6¼ mi+ - 070° 070° 9 kt METAR UMGG 300700Z 07005MPS CAVOK 23/17 Q1018 NOSIG
9:30 am
V
72 °F 6¼ mi+ - 060° 060° 7 kt METAR UMGG 300630Z 06004MPS 9999 FEW010 22/17 Q1018 NOSIG
9:00 am
V
72 °F 6¼ mi+ - 070° 070° 7 kt METAR UMGG 300600Z 07004MPS 9999 FEW011 22/17 Q1018 NOSIG
8:30 am
V
70 °F 5 mi - 100° 100° 7 kt METAR UMGG 300530Z 10004MPS 8000 FEW007 21/18 Q1018 NOSIG
8:00 am
V
70 °F 5⅝ mi - 120° 120° 5 kt METAR UMGG 300500Z 12003MPS 9000 NSC 21/18 Q1018 NOSIG
7:30 am
V
70 °F 5⅝ mi - 080° 080° 5 kt METAR UMGG 300430Z 08003MPS 9000 NSC 21/19 Q1018 NOSIG
7:00 am
M
70 °F 3¾ mi - 070° 070° 5 kt METAR UMGG 300400Z 07003MPS 6000 NSC 21/19 Q1018 NOSIG
6:30 am
I
64 °F 3 mi - 070° 070° 7 kt METAR UMGG 300330Z 07004MPS 4800 BR NSC 18/17 Q1018 NOSIG
6:00 am
L
64 °F ⅝ mi - 060° 060° 5 kt METAR UMGG 300300Z 06003MPS 1100 BR NSC 18/17 Q1018 TEMPO 2000
5:00 am
L
61 °F ⅜ mi - 100° 100° 5 kt METAR UMGG 300200Z 10003MPS 0700 FG NSC 16/16 Q1018 NOSIG
4:39 am
L
63 °F ⅛ mi - 060° 060° 5 kt METAR UMGG 300139Z 06003MPS 0250 R10/0500 FG NSC 17/17 Q1018 NOSIG
4:00 am
L
63 °F ¼ mi - 060° 060° 5 kt METAR UMGG 300100Z 06003MPS 0500 R10/0800 FG NSC 17/17 Q1018 TEMPO 0300
3:51 am
L
63 °F ⅜ mi - 060° 060° 5 kt METAR UMGG 300051Z 06003MPS 0600 R10/0900 FG NSC 17/17 Q1018 TEMPO 0300
3:20 am
L
63 °F ¼ mi - 050° 050° 5 kt METAR UMGG 300020Z 05003MPS 0500 R10/1400 FG NSC 17/17 Q1018 TEMPO 0300
3:10 am
L
63 °F ½ mi 10,000 ft 050° 050° 5 kt METAR UMGG 300010Z 05003MPS 0900 R10/P2000 FG FEW040 BKN100 17/17 Q1018 TEMPO 0300
3:00 am
I
63 °F 1 mi 10,000 ft 050° 050° 5 kt METAR UMGG 300000Z 05003MPS 1700 BR FEW040 BKN100 17/17 Q1018 TEMPO 1000
2:00 am
I
64 °F 2 mi 4,800 ft 070° 070° 5 kt METAR UMGG 292300Z 07003MPS 3200 BR BKN048CB OVC100 18/17 Q1018 NOSIG
12:00 am
M
66 °F 3¾ mi 4,800 ft 070° 070° 5 kt METAR UMGG 292100Z 07003MPS 6000 -SHRA BKN048CB OVC100 19/17 Q1018 NOSIG

June 29, 2022

Time Code Weather Temp. Visibility Ceiling Wind METAR/SPECI
11:00 pm
V
66 °F 5 mi 10,000 ft 090° 090° 3 kt METAR UMGG 292000Z 09002MPS 8000 -SHRA SCT050CB BKN100 19/16 Q1018 NOSIG
10:00 pm
V
66 °F 5⅝ mi 3,600 ft 050° 050° 3 kt METAR UMGG 291900Z 05002MPS 9000 -SHRA BKN036CB BKN100 19/15 Q1018 NOSIG
9:00 pm
V
66 °F 6¼ mi+ 10,000 ft 030° 030° 7 kt METAR UMGG 291800Z 03004MPS 9999 SCT050CB BKN100 19/15 Q1018 TEMPO 2000 TSRA
8:00 pm
V
70 °F 6¼ mi+ 4,500 ft 130° 130° 9 kt METAR UMGG 291700Z 13005MPS 9999 BKN045CB BKN100 21/17 Q1017 TEMPO 2000 TSRA
7:30 pm
V
70 °F 6¼ mi+ 4,800 ft 140° 140° 11 kt METAR UMGG 291630Z 14006MPS 9999 BKN048CB BKN100 21/17 Q1018 TEMPO 2000 TSRA
7:00 pm
V
70 °F 6¼ mi+ 4,800 ft 140° 140° 9 - 15 kt METAR UMGG 291600Z 14005G08MPS 9999 BKN048CB BKN100 21/17 Q1018 TEMPO 2000 TSRA
6:30 pm
V
72 °F 6¼ mi+ 3,500 ft 130° 130° 11 kt METAR UMGG 291530Z 13006MPS 9999 -SHRA BKN035CB BKN100 22/17 Q1018 NOSIG
6:00 pm
V
72 °F 6¼ mi+ 4,200 ft 090° 090° 13 - 19 kt METAR UMGG 291500Z 09007G10MPS 9999 -SHRA BKN042CB BKN100 22/17 Q1018 NOSIG
Older data

Download our app

Easy access to all aviation weather on your mobile phone and tablet.
With many features not available on the website, like offline support and a personal airport list.

We and third parties follow your internet behavior on our website with cookies. If you continue, we assume you agree with our cookie policy. Learn more